This is the latest recevied weather packets stored in our database for station/object WR9A-13. If no packets are shown the sender has not sent any weather packets the latest 10 day(s).
| Time | Temp. | Humidity | Pressure | Rain* | Wind** | Luminosity | Snow |
|---|---|---|---|---|---|---|---|
| 1778191819 | 12.22° C | 79% | 1014.2 hPa | 0 mm | - | - | - |
| 1778191515 | 12.22° C | 82% | 1014.2 hPa | 0 mm | - | - | - |
| 1778191217 | 11.67° C | 82% | 1014.3 hPa | 0 mm | - | - | - |
| 1778190914 | 11.67° C | 82% | 1014.3 hPa | 0 mm | - | - | - |
| 1778190630 | 11.11° C | 81% | 1014.4 hPa | 0 mm | - | - | - |
| 1778190318 | 11.11° C | 81% | 1014.5 hPa | 0 mm | - | - | - |
| 1778190035 | 11.11° C | 81% | 1014.4 hPa | 0 mm | - | - | - |
| 1778189723 | 11.11° C | 81% | 1014.7 hPa | 0 mm | - | - | - |
| 1778189440 | 11.11° C | 80% | 1014.8 hPa | 0 mm | - | - | - |
| 1778189127 | 11.11° C | 80% | 1014.9 hPa | 0 mm | - | - | - |
| 1778188843 | 11.11° C | 77% | 1015 hPa | 0 mm | - | - | - |
| 1778188531 | 11.67° C | 75% | 1015.1 hPa | 0 mm | - | - | - |
| 1778188228 | 12.78° C | 71% | 1014.9 hPa | 0 mm | - | - | - |
| 1778187915 | 13.33° C | 64% | 1014.6 hPa | 0 mm | - | - | - |
| 1778187622 | 14.44° C | 59% | 1014.2 hPa | 0 mm | - | - | - |
| 1778187340 | 15.56° C | 45% | 1013.9 hPa | 0 mm | - | - | - |
| 1778187026 | 16.11° C | 46% | 1013.6 hPa | 0 mm | - | - | - |
| 1778186714 | 16.11° C | 44% | 1013.3 hPa | 0 mm | - | - | - |
| 1778186431 | 16.67° C | 44% | 1013.3 hPa | 0 mm | - | - | - |
| 1778186118 | 16.67° C | 44% | 1013.3 hPa | 0 mm | - | - | - |
| 1778185814 | 17.22° C | 45% | 1013.2 hPa | 0 mm | - | - | - |
| 1778185521 | 16.67° C | 44% | 1013.4 hPa | 0 mm | - | - | - |
| 1778185216 | 16.67° C | 46% | 1013.4 hPa | 0 mm | - | - | - |
| 1778184932 | 16.11° C | 45% | 1013.6 hPa | 0 mm | - | - | - |
| 1778184618 | 15.56° C | 47% | 1013.8 hPa | 0 mm | - | - | - |
* Rain latest hour (hover to see other rain measurements)
** Current wind speed in m/s (hover to see current wind gust speed)